sensor_id;sensor_type;location;lat;lon;timestamp;pressure;altitude;pressure_sealevel;temperature;humidity
49040;BME280;36811;49.732;13.402;2023-01-28T00:00:33;98348.44;;;0.55;85.55
49040;BME280;36811;49.732;13.402;2023-01-28T00:02:59;98350.34;;;0.61;85.39
49040;BME280;36811;49.732;13.402;2023-01-28T00:05:25;98343.41;;;0.68;85.18
49040;BME280;36811;49.732;13.402;2023-01-28T00:07:51;98352.59;;;0.64;85.41
49040;BME280;36811;49.732;13.402;2023-01-28T00:10:17;98352.44;;;0.66;84.68
49040;BME280;36811;49.732;13.402;2023-01-28T00:12:43;98343.94;;;0.63;84.92
49040;BME280;36811;49.732;13.402;2023-01-28T00:15:09;98351.63;;;0.50;85.63
49040;BME280;36811;49.732;13.402;2023-01-28T00:17:36;98343.78;;;0.65;85.25
49040;BME280;36811;49.732;13.402;2023-01-28T00:20:03;98334.63;;;0.61;84.61
49040;BME280;36811;49.732;13.402;2023-01-28T00:22:30;98342.47;;;0.46;85.58
49040;BME280;36811;49.732;13.402;2023-01-28T00:24:57;98358.44;;;0.51;85.68
49040;BME280;36811;49.732;13.402;2023-01-28T00:27:23;98358.19;;;0.61;85.81
49040;BME280;36811;49.732;13.402;2023-01-28T00:29:49;98361.19;;;0.73;85.05
49040;BME280;36811;49.732;13.402;2023-01-28T00:32:15;98361.75;;;0.68;85.03
49040;BME280;36811;49.732;13.402;2023-01-28T00:34:40;98354.66;;;0.54;85.56
49040;BME280;36811;49.732;13.402;2023-01-28T00:37:06;98359.47;;;0.65;85.62
49040;BME280;36811;49.732;13.402;2023-01-28T00:39:32;98359.19;;;0.60;84.89
49040;BME280;36811;49.732;13.402;2023-01-28T00:41:58;98356.78;;;0.73;85.29
49040;BME280;36811;49.732;13.402;2023-01-28T00:44:23;98361.22;;;0.87;85.20
49040;BME280;36811;49.732;13.402;2023-01-28T00:46:49;98358.50;;;0.95;84.73
49040;BME280;36811;49.732;13.402;2023-01-28T00:49:14;98355.91;;;0.81;84.09
49040;BME280;36811;49.732;13.402;2023-01-28T00:51:40;98359.47;;;0.65;84.73
49040;BME280;36811;49.732;13.402;2023-01-28T00:54:07;98363.34;;;0.69;85.18
49040;BME280;36811;49.732;13.402;2023-01-28T00:56:33;98356.41;;;0.61;85.15
49040;BME280;36811;49.732;13.402;2023-01-28T00:58:58;98356.66;;;0.67;84.82
49040;BME280;36811;49.732;13.402;2023-01-28T01:01:26;98361.38;;;0.71;85.71
49040;BME280;36811;49.732;13.402;2023-01-28T01:03:53;98361.75;;;0.68;85.60
49040;BME280;36811;49.732;13.402;2023-01-28T01:06:38;98361.47;;;0.78;85.39
49040;BME280;36811;49.732;13.402;2023-01-28T01:09:07;98362.09;;;0.80;83.96
49040;BME280;36811;49.732;13.402;2023-01-28T01:11:33;98363.75;;;0.81;84.55
49040;BME280;36811;49.732;13.402;2023-01-28T01:14:00;98355.91;;;0.81;84.29
49040;BME280;36811;49.732;13.402;2023-01-28T01:16:28;98363.97;;;0.71;85.58
49040;BME280;36811;49.732;13.402;2023-01-28T01:18:55;98366.25;;;0.89;84.40
49040;BME280;36811;49.732;13.402;2023-01-28T01:21:24;98361.41;;;0.86;84.53
49040;BME280;36811;49.732;13.402;2023-01-28T01:23:51;98365.00;;;0.85;84.97
49040;BME280;36811;49.732;13.402;2023-01-28T01:26:18;98369.34;;;0.78;84.79
49040;BME280;36811;49.732;13.402;2023-01-28T01:28:44;98360.09;;;0.67;84.97
49040;BME280;36811;49.732;13.402;2023-01-28T01:31:15;98367.50;;;0.63;85.66
49040;BME280;36811;49.732;13.402;2023-01-28T01:33:43;98372.50;;;0.73;85.75
49040;BME280;36811;49.732;13.402;2023-01-28T01:36:11;98371.47;;;0.74;85.35
49040;BME280;36811;49.732;13.402;2023-01-28T01:38:37;98378.63;;;0.80;85.16
49040;BME280;36811;49.732;13.402;2023-01-28T01:41:04;98381.25;;;0.80;84.58
49040;BME280;36811;49.732;13.402;2023-01-28T01:43:54;98365.06;;;0.77;84.77
49040;BME280;36811;49.732;13.402;2023-01-28T01:51:42;98380.97;;;0.75;85.38
49040;BME280;36811;49.732;13.402;2023-01-28T01:54:09;98384.97;;;0.86;84.91
49040;BME280;36811;49.732;13.402;2023-01-28T01:56:38;98387.53;;;0.71;84.71
49040;BME280;36811;49.732;13.402;2023-01-28T01:59:09;98391.38;;;0.83;85.21
49040;BME280;36811;49.732;13.402;2023-01-28T02:01:37;98386.50;;;0.80;84.81
49040;BME280;36811;49.732;13.402;2023-01-28T02:04:08;98388.31;;;0.94;84.82
49040;BME280;36811;49.732;13.402;2023-01-28T02:06:35;98384.22;;;0.92;84.24
49040;BME280;36811;49.732;13.402;2023-01-28T02:09:05;98389.47;;;0.92;84.45
49040;BME280;36811;49.732;13.402;2023-01-28T02:11:32;98391.19;;;0.99;84.74
49040;BME280;36811;49.732;13.402;2023-01-28T02:14:01;98380.38;;;0.88;84.79
49040;BME280;36811;49.732;13.402;2023-01-28T02:16:29;98391.09;;;0.93;84.76
49040;BME280;36811;49.732;13.402;2023-01-28T02:18:55;98391.28;;;0.91;85.06
49040;BME280;36811;49.732;13.402;2023-01-28T02:22:18;98391.47;;;0.90;85.29
49040;BME280;36811;49.732;13.402;2023-01-28T02:27:28;98399.59;;;0.80;85.95
49040;BME280;36811;49.732;13.402;2023-01-28T02:30:14;98396.50;;;0.77;87.06
49040;BME280;36811;49.732;13.402;2023-01-28T02:38:31;98405.84;;;0.56;87.90
49040;BME280;36811;49.732;13.402;2023-01-28T02:41:04;98401.53;;;0.63;88.62
49040;BME280;36811;49.732;13.402;2023-01-28T02:43:40;98403.50;;;0.61;88.07
49040;BME280;36811;49.732;13.402;2023-01-28T02:46:17;98399.78;;;0.56;88.45
49040;BME280;36811;49.732;13.402;2023-01-28T02:49:09;98396.09;;;0.50;88.83
49040;BME280;36811;49.732;13.402;2023-01-28T02:51:54;98398.78;;;0.42;88.50
49040;BME280;36811;49.732;13.402;2023-01-28T02:57:39;98402.34;;;0.64;89.01
49040;BME280;36811;49.732;13.402;2023-01-28T03:00:18;98399.59;;;0.43;88.74
49040;BME280;36811;49.732;13.402;2023-01-28T03:05:43;98390.09;;;0.42;88.35
49040;BME280;36811;49.732;13.402;2023-01-28T03:11:18;98391.78;;;0.57;87.94
49040;BME280;36811;49.732;13.402;2023-01-28T03:14:04;98394.13;;;0.52;88.51
49040;BME280;36811;49.732;13.402;2023-01-28T03:16:49;98390.13;;;0.56;87.36
49040;BME280;36811;49.732;13.402;2023-01-28T03:19:35;98390.41;;;0.47;87.73
49040;BME280;36811;49.732;13.402;2023-01-28T03:22:21;98388.94;;;0.44;88.28
49040;BME280;36811;49.732;13.402;2023-01-28T03:25:08;98399.69;;;0.49;87.50
49040;BME280;36811;49.732;13.402;2023-01-28T03:28:01;98399.00;;;0.55;87.36
49040;BME280;36811;49.732;13.402;2023-01-28T03:30:52;98400.16;;;0.53;87.43
49040;BME280;36811;49.732;13.402;2023-01-28T03:33:41;98400.59;;;0.56;87.35
49040;BME280;36811;49.732;13.402;2023-01-28T03:36:27;98402.41;;;0.56;86.78
49040;BME280;36811;49.732;13.402;2023-01-28T03:39:12;98400.53;;;0.64;87.47
49040;BME280;36811;49.732;13.402;2023-01-28T03:41:38;98403.34;;;0.63;86.92
49040;BME280;36811;49.732;13.402;2023-01-28T03:44:03;98400.53;;;0.64;86.14
49040;BME280;36811;49.732;13.402;2023-01-28T03:46:48;98408.38;;;0.50;86.96
49040;BME280;36811;49.732;13.402;2023-01-28T03:49:15;98405.97;;;0.63;86.32
49040;BME280;36811;49.732;13.402;2023-01-28T03:51:41;98405.59;;;0.66;86.30
49040;BME280;36811;49.732;13.402;2023-01-28T03:54:08;98404.41;;;0.69;86.18
49040;BME280;36811;49.732;13.402;2023-01-28T03:56:33;98409.25;;;0.80;85.95
49040;BME280;36811;49.732;13.402;2023-01-28T03:59:06;98403.47;;;0.84;85.98
49040;BME280;36811;49.732;13.402;2023-01-28T04:01:32;98407.09;;;0.83;85.99
49040;BME280;36811;49.732;13.402;2023-01-28T04:03:57;98404.75;;;0.88;85.62
49040;BME280;36811;49.732;13.402;2023-01-28T04:06:23;98397.78;;;0.81;85.42
49040;BME280;36811;49.732;13.402;2023-01-28T04:08:48;98398.84;;;0.86;85.52
49040;BME280;36811;49.732;13.402;2023-01-28T04:11:18;98399.22;;;0.83;84.54
49040;BME280;36811;49.732;13.402;2023-01-28T04:13:47;98398.56;;;0.81;85.49
49040;BME280;36811;49.732;13.402;2023-01-28T04:16:15;98402.56;;;0.77;84.75
49040;BME280;36811;49.732;13.402;2023-01-28T04:18:42;98407.78;;;0.77;85.24
49040;BME280;36811;49.732;13.402;2023-01-28T04:21:08;98408.88;;;0.68;85.72
49040;BME280;36811;49.732;13.402;2023-01-28T04:23:33;98408.22;;;0.66;85.78
49040;BME280;36811;49.732;13.402;2023-01-28T04:25:59;98411.19;;;0.63;86.40
49040;BME280;36811;49.732;13.402;2023-01-28T04:28:25;98417.09;;;0.80;86.08
49040;BME280;36811;49.732;13.402;2023-01-28T04:30:51;98422.25;;;0.73;85.08
49040;BME280;36811;49.732;13.402;2023-01-28T04:33:18;98419.91;;;0.78;85.69
49040;BME280;36811;49.732;13.402;2023-01-28T04:35:43;98431.41;;;0.69;85.35
49040;BME280;36811;49.732;13.402;2023-01-28T04:38:09;98424.47;;;0.76;85.54
49040;BME280;36811;49.732;13.402;2023-01-28T04:40:35;98423.59;;;0.84;85.26
49040;BME280;36811;49.732;13.402;2023-01-28T04:43:00;98419.63;;;0.73;84.78
49040;BME280;36811;49.732;13.402;2023-01-28T04:45:26;98421.78;;;0.84;84.76
49040;BME280;36811;49.732;13.402;2023-01-28T04:47:51;98423.84;;;0.74;84.91
49040;BME280;36811;49.732;13.402;2023-01-28T04:50:17;98430.59;;;0.69;85.66
49040;BME280;36811;49.732;13.402;2023-01-28T04:52:43;98426.03;;;0.71;85.12
49040;BME280;36811;49.732;13.402;2023-01-28T04:55:09;98436.50;;;0.71;84.88
49040;BME280;36811;49.732;13.402;2023-01-28T04:57:35;98437.00;;;0.66;85.05
49040;BME280;36811;49.732;13.402;2023-01-28T05:00:01;98439.91;;;0.71;85.32
49040;BME280;36811;49.732;13.402;2023-01-28T05:02:28;98426.88;;;0.86;84.99
49040;BME280;36811;49.732;13.402;2023-01-28T05:04:53;98429.03;;;0.97;84.92
49040;BME280;36811;49.732;13.402;2023-01-28T05:07:19;98428.88;;;0.98;84.74
49040;BME280;36811;49.732;13.402;2023-01-28T05:09:44;98429.28;;;0.87;84.57
49040;BME280;36811;49.732;13.402;2023-01-28T05:12:10;98432.75;;;1.02;84.72
49040;BME280;36811;49.732;13.402;2023-01-28T05:14:35;98425.53;;;1.04;84.14
49040;BME280;36811;49.732;13.402;2023-01-28T05:17:01;98428.59;;;0.93;83.90
49040;BME280;36811;49.732;13.402;2023-01-28T05:19:27;98431.72;;;0.89;83.86
49040;BME280;36811;49.732;13.402;2023-01-28T05:21:53;98432.66;;;0.96;83.53
49040;BME280;36811;49.732;13.402;2023-01-28T05:24:18;98432.53;;;0.89;84.07
49040;BME280;36811;49.732;13.402;2023-01-28T05:26:45;98436.72;;;0.98;84.54
49040;BME280;36811;49.732;13.402;2023-01-28T05:29:11;98431.50;;;0.98;84.37
49040;BME280;36811;49.732;13.402;2023-01-28T05:31:37;98427.78;;;0.93;83.84
49040;BME280;36811;49.732;13.402;2023-01-28T05:34:02;98431.72;;;0.89;83.71
49040;BME280;36811;49.732;13.402;2023-01-28T05:36:28;98431.38;;;0.92;84.31
49040;BME280;36811;49.732;13.402;2023-01-28T05:38:54;98440.47;;;0.81;83.41
49040;BME280;36811;49.732;13.402;2023-01-28T05:41:19;98440.56;;;0.73;85.07
49040;BME280;36811;49.732;13.402;2023-01-28T05:43:45;98440.06;;;0.92;84.77
49040;BME280;36811;49.732;13.402;2023-01-28T05:46:10;98437.44;;;0.92;84.26
49040;BME280;36811;49.732;13.402;2023-01-28T05:48:36;98432.09;;;0.86;84.50
49040;BME280;36811;49.732;13.402;2023-01-28T05:51:02;98434.50;;;0.73;84.70
49040;BME280;36811;49.732;13.402;2023-01-28T05:53:30;98441.88;;;0.69;85.02
49040;BME280;36811;49.732;13.402;2023-01-28T05:55:56;98437.50;;;0.84;85.33
49040;BME280;36811;49.732;13.402;2023-01-28T05:58:21;98431.66;;;0.97;84.62
49040;BME280;36811;49.732;13.402;2023-01-28T06:00:47;98434.06;;;0.84;84.52
49040;BME280;36811;49.732;13.402;2023-01-28T06:03:12;98447.31;;;0.68;85.16
49040;BME280;36811;49.732;13.402;2023-01-28T06:05:38;98442.94;;;0.83;86.40
49040;BME280;36811;49.732;13.402;2023-01-28T06:08:04;98440.09;;;0.70;85.59
49040;BME280;36811;49.732;13.402;2023-01-28T06:10:30;98446.88;;;0.79;86.28
49040;BME280;36811;49.732;13.402;2023-01-28T06:12:56;98441.44;;;0.66;86.29
49040;BME280;36811;49.732;13.402;2023-01-28T06:15:21;98448.78;;;0.70;86.99
49040;BME280;36811;49.732;13.402;2023-01-28T06:17:47;98448.31;;;0.81;86.61
49040;BME280;36811;49.732;13.402;2023-01-28T06:20:13;98464.69;;;0.83;85.45
49040;BME280;36811;49.732;13.402;2023-01-28T06:22:38;98458.94;;;0.65;86.91
49040;BME280;36811;49.732;13.402;2023-01-28T06:25:04;98459.34;;;0.77;86.69
49040;BME280;36811;49.732;13.402;2023-01-28T06:27:30;98463.88;;;0.83;86.92
49040;BME280;36811;49.732;13.402;2023-01-28T06:29:56;98455.47;;;0.87;86.69
49040;BME280;36811;49.732;13.402;2023-01-28T06:32:21;98473.47;;;0.90;87.19
49040;BME280;36811;49.732;13.402;2023-01-28T06:34:47;98471.16;;;0.73;86.65
49040;BME280;36811;49.732;13.402;2023-01-28T06:37:13;98481.44;;;0.74;87.91
49040;BME280;36811;49.732;13.402;2023-01-28T06:39:39;98487.03;;;0.71;87.25
49040;BME280;36811;49.732;13.402;2023-01-28T06:42:05;98478.28;;;0.79;87.66
49040;BME280;36811;49.732;13.402;2023-01-28T06:44:30;98484.00;;;0.82;87.56
49040;BME280;36811;49.732;13.402;2023-01-28T06:46:56;98490.78;;;0.91;87.93
49040;BME280;36811;49.732;13.402;2023-01-28T06:49:22;98482.06;;;0.76;87.35
49040;BME280;36811;49.732;13.402;2023-01-28T06:51:48;98486.63;;;0.82;87.85
49040;BME280;36811;49.732;13.402;2023-01-28T06:54:14;98490.06;;;0.83;87.96
49040;BME280;36811;49.732;13.402;2023-01-28T06:56:40;98501.09;;;0.93;87.68
49040;BME280;36811;49.732;13.402;2023-01-28T06:59:05;98493.66;;;0.82;87.67
49040;BME280;36811;49.732;13.402;2023-01-28T07:01:31;98489.53;;;0.87;87.44
49040;BME280;36811;49.732;13.402;2023-01-28T07:03:56;98496.50;;;0.95;87.01
49040;BME280;36811;49.732;13.402;2023-01-28T07:06:22;98511.69;;;0.99;88.40
49040;BME280;36811;49.732;13.402;2023-01-28T07:08:48;98492.38;;;1.15;87.86
49040;BME280;36811;49.732;13.402;2023-01-28T07:11:14;98504.50;;;1.16;87.57
49040;BME280;36811;49.732;13.402;2023-01-28T07:13:40;98501.88;;;1.16;86.77
49040;BME280;36811;49.732;13.402;2023-01-28T07:16:06;98510.63;;;1.08;86.77
49040;BME280;36811;49.732;13.402;2023-01-28T07:18:32;98514.94;;;1.01;87.42
49040;BME280;36811;49.732;13.402;2023-01-28T07:20:58;98525.84;;;0.90;87.60
49040;BME280;36811;49.732;13.402;2023-01-28T07:23:25;98512.41;;;0.93;87.75
49040;BME280;36811;49.732;13.402;2023-01-28T07:25:50;98517.41;;;0.80;87.66
49040;BME280;36811;49.732;13.402;2023-01-28T07:28:16;98519.03;;;0.81;88.25
49040;BME280;36811;49.732;13.402;2023-01-28T07:30:50;98520.03;;;0.80;88.51
49040;BME280;36811;49.732;13.402;2023-01-28T07:33:16;98517.94;;;0.98;88.84
49040;BME280;36811;49.732;13.402;2023-01-28T07:35:43;98522.00;;;1.01;88.12
49040;BME280;36811;49.732;13.402;2023-01-28T07:38:09;98519.81;;;1.04;87.72
49040;BME280;36811;49.732;13.402;2023-01-28T07:40:34;98520.72;;;1.11;88.30
49040;BME280;36811;49.732;13.402;2023-01-28T07:43:00;98524.72;;;1.07;87.10
49040;BME280;36811;49.732;13.402;2023-01-28T07:45:26;98520.53;;;0.98;87.68
49040;BME280;36811;49.732;13.402;2023-01-28T07:47:57;98525.97;;;1.11;87.73
49040;BME280;36811;49.732;13.402;2023-01-28T07:50:24;98529.59;;;1.10;87.41
49040;BME280;36811;49.732;13.402;2023-01-28T07:52:50;98531.94;;;1.05;87.41
49040;BME280;36811;49.732;13.402;2023-01-28T07:55:16;98524.47;;;1.17;87.20
49040;BME280;36811;49.732;13.402;2023-01-28T08:00:15;98530.22;;;1.12;86.60
49040;BME280;36811;49.732;13.402;2023-01-28T08:02:41;98535.22;;;1.22;86.76
49040;BME280;36811;49.732;13.402;2023-01-28T08:05:09;98544.72;;;1.23;85.63
49040;BME280;36811;49.732;13.402;2023-01-28T08:07:35;98551.94;;;1.21;85.73
49040;BME280;36811;49.732;13.402;2023-01-28T08:10:00;98543.81;;;1.31;86.43
49040;BME280;36811;49.732;13.402;2023-01-28T08:12:26;98549.69;;;1.33;85.52
49040;BME280;36811;49.732;13.402;2023-01-28T08:14:52;98555.28;;;1.29;85.38
49040;BME280;36811;49.732;13.402;2023-01-28T08:17:17;98549.50;;;1.19;85.66
49040;BME280;36811;49.732;13.402;2023-01-28T08:19:43;98549.06;;;1.31;85.50
49040;BME280;36811;49.732;13.402;2023-01-28T08:22:08;98556.59;;;1.34;84.06
49040;BME280;36811;49.732;13.402;2023-01-28T08:24:34;98553.41;;;1.23;84.65
49040;BME280;36811;49.732;13.402;2023-01-28T08:26:59;98556.63;;;1.11;83.16
49040;BME280;36811;49.732;13.402;2023-01-28T08:29:25;98554.50;;;1.06;82.93
49040;BME280;36811;49.732;13.402;2023-01-28T08:31:51;98554.75;;;0.97;82.74
49040;BME280;36811;49.732;13.402;2023-01-28T08:34:16;98556.25;;;0.91;82.60
49040;BME280;36811;49.732;13.402;2023-01-28T08:36:42;98557.91;;;0.92;83.54
49040;BME280;36811;49.732;13.402;2023-01-28T08:39:07;98558.13;;;1.05;82.83
49040;BME280;36811;49.732;13.402;2023-01-28T08:41:33;98562.25;;;1.00;82.42
49040;BME280;36811;49.732;13.402;2023-01-28T08:43:59;98563.38;;;1.05;83.28
49040;BME280;36811;49.732;13.402;2023-01-28T08:46:24;98561.88;;;1.25;82.13
49040;BME280;36811;49.732;13.402;2023-01-28T08:48:50;98558.56;;;1.32;82.31
49040;BME280;36811;49.732;13.402;2023-01-28T08:51:16;98562.88;;;1.24;81.60
49040;BME280;36811;49.732;13.402;2023-01-28T08:53:41;98571.28;;;1.20;81.17
49040;BME280;36811;49.732;13.402;2023-01-28T08:56:07;98572.09;;;1.20;81.15
49040;BME280;36811;49.732;13.402;2023-01-28T08:58:32;98572.91;;;1.21;81.18
49040;BME280;36811;49.732;13.402;2023-01-28T09:01:03;98567.69;;;0.98;80.73
49040;BME280;36811;49.732;13.402;2023-01-28T09:03:29;98570.81;;;0.94;81.62
49040;BME280;36811;49.732;13.402;2023-01-28T09:06:02;98578.84;;;0.92;81.96
49040;BME280;36811;49.732;13.402;2023-01-28T09:08:29;98577.91;;;1.08;82.34
49040;BME280;36811;49.732;13.402;2023-01-28T09:10:57;98580.69;;;1.06;81.80
49040;BME280;36811;49.732;13.402;2023-01-28T09:13:23;98586.47;;;1.02;81.42
49040;BME280;36811;49.732;13.402;2023-01-28T09:15:50;98583.13;;;0.93;82.19
49040;BME280;36811;49.732;13.402;2023-01-28T09:18:16;98583.16;;;1.08;83.22
49040;BME280;36811;49.732;13.402;2023-01-28T09:20:42;98588.75;;;1.05;81.72
49040;BME280;36811;49.732;13.402;2023-01-28T09:23:08;98580.84;;;0.90;83.46
49040;BME280;36811;49.732;13.402;2023-01-28T09:25:35;98591.66;;;1.10;83.52
49040;BME280;36811;49.732;13.402;2023-01-28T09:28:01;98593.50;;;1.01;82.43
49040;BME280;36811;49.732;13.402;2023-01-28T09:30:27;98588.16;;;0.95;83.05
49040;BME280;36811;49.732;13.402;2023-01-28T09:32:54;98590.09;;;1.01;83.26
49040;BME280;36811;49.732;13.402;2023-01-28T09:35:21;98602.81;;;1.04;83.23
49040;BME280;36811;49.732;13.402;2023-01-28T09:37:47;98599.16;;;0.90;83.54
49040;BME280;36811;49.732;13.402;2023-01-28T09:40:41;98606.09;;;0.83;83.69
49040;BME280;36811;49.732;13.402;2023-01-28T09:46:03;98603.78;;;0.88;83.90
49040;BME280;36811;49.732;13.402;2023-01-28T09:48:57;98615.81;;;0.97;83.99
49040;BME280;36811;49.732;13.402;2023-01-28T09:51:41;98613.97;;;0.83;85.17
49040;BME280;36811;49.732;13.402;2023-01-28T09:54:26;98613.38;;;0.96;84.48
49040;BME280;36811;49.732;13.402;2023-01-28T09:57:01;98606.88;;;0.84;84.80
49040;BME280;36811;49.732;13.402;2023-01-28T09:59:32;98610.53;;;1.05;84.27
49040;BME280;36811;49.732;13.402;2023-01-28T10:02:36;98615.81;;;1.20;83.13
49040;BME280;36811;49.732;13.402;2023-01-28T10:10:52;98624.44;;;1.28;83.45
49040;BME280;36811;49.732;13.402;2023-01-28T10:19:03;98613.44;;;1.10;84.32
49040;BME280;36811;49.732;13.402;2023-01-28T10:21:37;98618.63;;;1.18;84.48
49040;BME280;36811;49.732;13.402;2023-01-28T10:24:16;98610.75;;;0.96;85.60
49040;BME280;36811;49.732;13.402;2023-01-28T10:26:46;98618.03;;;1.08;85.71
49040;BME280;36811;49.732;13.402;2023-01-28T10:29:25;98607.03;;;0.90;86.68
49040;BME280;36811;49.732;13.402;2023-01-28T10:34:38;98604.47;;;0.82;87.79
49040;BME280;36811;49.732;13.402;2023-01-28T10:37:04;98613.00;;;0.76;88.01
49040;BME280;36811;49.732;13.402;2023-01-28T10:39:29;98618.63;;;0.65;88.57
49040;BME280;36811;49.732;13.402;2023-01-28T10:41:55;98618.22;;;0.76;90.14
49040;BME280;36811;49.732;13.402;2023-01-28T10:44:28;98613.84;;;0.69;89.24
49040;BME280;36811;49.732;13.402;2023-01-28T10:46:59;98620.50;;;0.79;90.45
49040;BME280;36811;49.732;13.402;2023-01-28T10:49:27;98616.34;;;0.93;89.75
49040;BME280;36811;49.732;13.402;2023-01-28T10:51:54;98615.53;;;0.92;89.52
49040;BME280;36811;49.732;13.402;2023-01-28T10:54:26;98615.53;;;0.92;90.44
49040;BME280;36811;49.732;13.402;2023-01-28T10:56:56;98620.41;;;0.95;90.13
49040;BME280;36811;49.732;13.402;2023-01-28T10:59:34;98627.50;;;0.87;90.19
49040;BME280;36811;49.732;13.402;2023-01-28T11:02:04;98625.63;;;0.73;90.29
49040;BME280;36811;49.732;13.402;2023-01-28T11:04:45;98623.88;;;0.65;90.74
49040;BME280;36811;49.732;13.402;2023-01-28T11:07:20;98627.63;;;0.71;90.80
49040;BME280;36811;49.732;13.402;2023-01-28T11:09:48;98634.94;;;0.75;91.56
49040;BME280;36811;49.732;13.402;2023-01-28T11:14:51;98629.75;;;0.67;90.76
49040;BME280;36811;49.732;13.402;2023-01-28T11:17:18;98628.94;;;0.67;90.84
49040;BME280;36811;49.732;13.402;2023-01-28T11:19:45;98625.44;;;0.74;91.64
49040;BME280;36811;49.732;13.402;2023-01-28T11:22:32;98627.47;;;0.64;90.04
49040;BME280;36811;49.732;13.402;2023-01-28T11:25:00;98623.84;;;0.34;90.40
49040;BME280;36811;49.732;13.402;2023-01-28T11:27:31;98626.44;;;0.42;91.31
49040;BME280;36811;49.732;13.402;2023-01-28T11:29:59;98636.44;;;0.31;91.17
49040;BME280;36811;49.732;13.402;2023-01-28T11:32:29;98624.28;;;0.15;91.56
49040;BME280;36811;49.732;13.402;2023-01-28T11:34:56;98632.06;;;0.23;90.90
49040;BME280;36811;49.732;13.402;2023-01-28T11:37:24;98637.81;;;0.19;90.00
49040;BME280;36811;49.732;13.402;2023-01-28T11:40:16;98633.03;;;0.30;91.04
49040;BME280;36811;49.732;13.402;2023-01-28T11:42:52;98638.31;;;0.14;88.42
49040;BME280;36811;49.732;13.402;2023-01-28T11:45:27;98626.75;;;0.00;89.36
49040;BME280;36811;49.732;13.402;2023-01-28T11:50:35;98628.13;;;0.35;88.47
49040;BME280;36811;49.732;13.402;2023-01-28T12:04:32;98624.25;;;0.85;85.08
49040;BME280;36811;49.732;13.402;2023-01-28T12:07:22;98631.56;;;0.89;82.76
49040;BME280;36811;49.732;13.402;2023-01-28T12:10:01;98639.53;;;0.73;82.65
49040;BME280;36811;49.732;13.402;2023-01-28T12:18:18;98636.97;;;0.26;83.68
49040;BME280;36811;49.732;13.402;2023-01-28T12:26:19;98641.06;;;0.21;83.52
49040;BME280;36811;49.732;13.402;2023-01-28T12:29:24;98647.31;;;0.20;84.04
49040;BME280;36811;49.732;13.402;2023-01-28T12:39:44;98653.25;;;-0.11;86.53
49040;BME280;36811;49.732;13.402;2023-01-28T12:42:18;98654.88;;;-0.10;85.79
49040;BME280;36811;49.732;13.402;2023-01-28T12:44:55;98651.94;;;-0.15;84.58
49040;BME280;36811;49.732;13.402;2023-01-28T12:47:32;98649.81;;;-0.03;85.47
49040;BME280;36811;49.732;13.402;2023-01-28T12:52:48;98653.28;;;-0.19;83.86
49040;BME280;36811;49.732;13.402;2023-01-28T12:55:41;98644.59;;;-0.03;83.69
49040;BME280;36811;49.732;13.402;2023-01-28T12:58:16;98649.34;;;-0.15;83.36
49040;BME280;36811;49.732;13.402;2023-01-28T13:00:48;98648.50;;;-0.07;83.95
49040;BME280;36811;49.732;13.402;2023-01-28T13:03:24;98660.41;;;0.04;82.68
49040;BME280;36811;49.732;13.402;2023-01-28T13:06:05;98653.69;;;0.09;83.35
49040;BME280;36811;49.732;13.402;2023-01-28T13:08:33;98646.75;;;0.32;82.49
49040;BME280;36811;49.732;13.402;2023-01-28T13:11:00;98648.88;;;0.37;81.91
49040;BME280;36811;49.732;13.402;2023-01-28T13:13:35;98650.63;;;0.44;80.89
49040;BME280;36811;49.732;13.402;2023-01-28T13:16:04;98652.72;;;0.49;81.45
49040;BME280;36811;49.732;13.402;2023-01-28T13:23:50;98670.47;;;0.31;79.18
49040;BME280;36811;49.732;13.402;2023-01-28T13:28:52;98658.22;;;0.31;78.49
49040;BME280;36811;49.732;13.402;2023-01-28T13:31:22;98660.25;;;0.52;77.69
49040;BME280;36811;49.732;13.402;2023-01-28T13:34:02;98669.28;;;0.41;76.66
49040;BME280;36811;49.732;13.402;2023-01-28T13:36:36;98658.00;;;0.41;76.69
49040;BME280;36811;49.732;13.402;2023-01-28T13:39:13;98655.13;;;0.58;76.61
49040;BME280;36811;49.732;13.402;2023-01-28T13:41:49;98666.13;;;0.54;75.65
49040;BME280;36811;49.732;13.402;2023-01-28T13:44:27;98668.06;;;0.60;74.79
49040;BME280;36811;49.732;13.402;2023-01-28T13:46:57;98664.91;;;0.73;77.04
49040;BME280;36811;49.732;13.402;2023-01-28T13:49:39;98665.47;;;0.60;75.98
49040;BME280;36811;49.732;13.402;2023-01-28T13:54:37;98678.84;;;0.65;75.63
49040;BME280;36811;49.732;13.402;2023-01-28T14:16:59;98684.78;;;0.51;74.66
49040;BME280;36811;49.732;13.402;2023-01-28T14:19:32;98692.06;;;0.33;74.76
49040;BME280;36811;49.732;13.402;2023-01-28T14:22:08;98696.03;;;0.13;75.33
49040;BME280;36811;49.732;13.402;2023-01-28T14:24:38;98709.78;;;-0.02;75.45
49040;BME280;36811;49.732;13.402;2023-01-28T14:27:12;98697.34;;;0.00;75.79
49040;BME280;36811;49.732;13.402;2023-01-28T14:30:03;98692.94;;;0.01;75.85
49040;BME280;36811;49.732;13.402;2023-01-28T14:32:33;98706.53;;;-0.12;75.46
49040;BME280;36811;49.732;13.402;2023-01-28T14:35:06;98706.19;;;-0.09;75.54
49040;BME280;36811;49.732;13.402;2023-01-28T14:37:32;98715.00;;;-0.02;76.15
49040;BME280;36811;49.732;13.402;2023-01-28T14:40:03;98713.03;;;0.00;76.07
49040;BME280;36811;49.732;13.402;2023-01-28T14:42:39;98713.41;;;-0.19;75.43
49040;BME280;36811;49.732;13.402;2023-01-28T14:51:01;98710.78;;;-0.19;75.55
49040;BME280;36811;49.732;13.402;2023-01-28T15:01:43;98711.47;;;-0.41;76.61
49040;BME280;36811;49.732;13.402;2023-01-28T15:04:27;98721.75;;;-0.39;76.44
49040;BME280;36811;49.732;13.402;2023-01-28T15:06:54;98731.06;;;-0.29;76.17
49040;BME280;36811;49.732;13.402;2023-01-28T15:09:21;98735.94;;;-0.42;74.97
49040;BME280;36811;49.732;13.402;2023-01-28T15:11:51;98731.22;;;-0.46;75.00
49040;BME280;36811;49.732;13.402;2023-01-28T15:14:30;98743.28;;;-0.45;75.13
49040;BME280;36811;49.732;13.402;2023-01-28T15:16:58;98743.16;;;-0.36;74.94
49040;BME280;36811;49.732;13.402;2023-01-28T15:19:34;98748.69;;;-0.31;74.51